sensor_id;sensor_type;location;lat;lon;timestamp;pressure;altitude;pressure_sealevel;temperature;humidity
75460;BME280;64039;53.060;9.342;2024-01-10T00:01:07;103127.03;;;-7.63;100.00
75460;BME280;64039;53.060;9.342;2024-01-10T00:03:32;103122.88;;;-7.50;100.00
75460;BME280;64039;53.060;9.342;2024-01-10T00:05:58;103120.97;;;-7.58;100.00
75460;BME280;64039;53.060;9.342;2024-01-10T00:08:23;103122.19;;;-7.62;100.00
75460;BME280;64039;53.060;9.342;2024-01-10T00:10:53;103121.16;;;-7.69;100.00
75460;BME280;64039;53.060;9.342;2024-01-10T00:13:21;103111.38;;;-7.74;100.00
75460;BME280;64039;53.060;9.342;2024-01-10T00:15:48;103116.22;;;-7.62;100.00
75460;BME280;64039;53.060;9.342;2024-01-10T00:18:14;103115.59;;;-7.67;100.00
75460;BME280;64039;53.060;9.342;2024-01-10T00:20:39;103110.97;;;-7.64;100.00
75460;BME280;64039;53.060;9.342;2024-01-10T00:23:05;103109.31;;;-7.50;100.00
75460;BME280;64039;53.060;9.342;2024-01-10T00:25:34;103107.59;;;-7.44;100.00
75460;BME280;64039;53.060;9.342;2024-01-10T00:27:59;103102.66;;;-7.50;100.00
75460;BME280;64039;53.060;9.342;2024-01-10T00:30:25;103093.66;;;-7.48;100.00
75460;BME280;64039;53.060;9.342;2024-01-10T00:32:51;103097.16;;;-7.40;100.00
75460;BME280;64039;53.060;9.342;2024-01-10T00:35:17;103093.19;;;-7.25;100.00
75460;BME280;64039;53.060;9.342;2024-01-10T00:37:42;103086.81;;;-7.29;100.00
75460;BME280;64039;53.060;9.342;2024-01-10T00:40:09;103089.13;;;-7.30;100.00
75460;BME280;64039;53.060;9.342;2024-01-10T00:42:35;103081.78;;;-7.42;100.00
75460;BME280;64039;53.060;9.342;2024-01-10T00:45:01;103069.63;;;-7.31;100.00
75460;BME280;64039;53.060;9.342;2024-01-10T00:47:26;103063.78;;;-7.17;100.00
75460;BME280;64039;53.060;9.342;2024-01-10T00:49:52;103061.47;;;-7.16;100.00
75460;BME280;64039;53.060;9.342;2024-01-10T00:52:17;103067.44;;;-7.15;100.00
75460;BME280;64039;53.060;9.342;2024-01-10T00:54:43;103060.09;;;-7.27;100.00
75460;BME280;64039;53.060;9.342;2024-01-10T00:57:09;103062.16;;;-7.37;100.00
75460;BME280;64039;53.060;9.342;2024-01-10T00:59:35;103060.91;;;-7.33;100.00
75460;BME280;64039;53.060;9.342;2024-01-10T01:02:00;103066.63;;;-7.42;100.00
75460;BME280;64039;53.060;9.342;2024-01-10T01:04:26;103062.06;;;-7.44;100.00
75460;BME280;64039;53.060;9.342;2024-01-10T01:06:51;103064.97;;;-7.41;100.00
75460;BME280;64039;53.060;9.342;2024-01-10T01:09:16;103075.19;;;-7.47;100.00
75460;BME280;64039;53.060;9.342;2024-01-10T01:11:42;103076.72;;;-7.42;100.00
75460;BME280;64039;53.060;9.342;2024-01-10T01:14:07;103073.78;;;-7.45;100.00
75460;BME280;64039;53.060;9.342;2024-01-10T01:16:33;103068.94;;;-7.43;100.00
75460;BME280;64039;53.060;9.342;2024-01-10T01:18:58;103066.94;;;-7.26;100.00
75460;BME280;64039;53.060;9.342;2024-01-10T01:21:24;103067.94;;;-7.18;100.00
75460;BME280;64039;53.060;9.342;2024-01-10T01:23:49;103061.66;;;-7.14;100.00
75460;BME280;64039;53.060;9.342;2024-01-10T01:26:14;103061.94;;;-7.38;100.00
75460;BME280;64039;53.060;9.342;2024-01-10T01:28:40;103066.72;;;-7.47;100.00
75460;BME280;64039;53.060;9.342;2024-01-10T01:31:05;103065.00;;;-7.54;100.00
75460;BME280;64039;53.060;9.342;2024-01-10T01:33:31;103077.19;;;-7.64;100.00
75460;BME280;64039;53.060;9.342;2024-01-10T01:35:56;103066.03;;;-7.59;100.00
75460;BME280;64039;53.060;9.342;2024-01-10T01:38:22;103071.38;;;-7.63;100.00
75460;BME280;64039;53.060;9.342;2024-01-10T01:40:47;103066.66;;;-7.67;100.00
75460;BME280;64039;53.060;9.342;2024-01-10T01:43:22;103062.50;;;-7.67;100.00
75460;BME280;64039;53.060;9.342;2024-01-10T01:45:51;103064.03;;;-7.75;100.00
75460;BME280;64039;53.060;9.342;2024-01-10T01:48:17;103069.47;;;-7.84;100.00
75460;BME280;64039;53.060;9.342;2024-01-10T01:50:44;103074.34;;;-7.86;100.00
75460;BME280;64039;53.060;9.342;2024-01-10T01:53:11;103071.53;;;-7.95;100.00
75460;BME280;64039;53.060;9.342;2024-01-10T01:55:37;103068.91;;;-8.02;100.00
75460;BME280;64039;53.060;9.342;2024-01-10T01:58:03;103066.16;;;-7.91;100.00
75460;BME280;64039;53.060;9.342;2024-01-10T02:00:28;103075.75;;;-7.75;100.00
75460;BME280;64039;53.060;9.342;2024-01-10T02:02:57;103073.44;;;-7.74;100.00
75460;BME280;64039;53.060;9.342;2024-01-10T02:05:24;103070.41;;;-7.71;100.00
75460;BME280;64039;53.060;9.342;2024-01-10T02:07:50;103064.75;;;-7.88;100.00
75460;BME280;64039;53.060;9.342;2024-01-10T02:10:15;103076.25;;;-7.78;100.00
75460;BME280;64039;53.060;9.342;2024-01-10T02:12:40;103069.81;;;-7.88;100.00
75460;BME280;64039;53.060;9.342;2024-01-10T02:15:06;103069.69;;;-7.57;100.00
75460;BME280;64039;53.060;9.342;2024-01-10T02:17:32;103066.84;;;-7.79;100.00
75460;BME280;64039;53.060;9.342;2024-01-10T02:20:14;103068.16;;;-7.75;100.00
75460;BME280;64039;53.060;9.342;2024-01-10T02:22:43;103067.97;;;-7.77;100.00
75460;BME280;64039;53.060;9.342;2024-01-10T02:25:12;103067.88;;;-7.97;100.00
75460;BME280;64039;53.060;9.342;2024-01-10T02:27:38;103064.94;;;-7.87;100.00
75460;BME280;64039;53.060;9.342;2024-01-10T02:30:05;103054.13;;;-7.99;100.00
75460;BME280;64039;53.060;9.342;2024-01-10T02:32:31;103063.44;;;-7.92;100.00
75460;BME280;64039;53.060;9.342;2024-01-10T02:34:57;103059.38;;;-7.84;100.00
75460;BME280;64039;53.060;9.342;2024-01-10T02:37:23;103056.97;;;-7.77;100.00
75460;BME280;64039;53.060;9.342;2024-01-10T02:39:48;103047.47;;;-7.72;100.00
75460;BME280;64039;53.060;9.342;2024-01-10T02:42:14;103059.56;;;-7.57;100.00
75460;BME280;64039;53.060;9.342;2024-01-10T02:44:39;103057.66;;;-7.78;100.00
75460;BME280;64039;53.060;9.342;2024-01-10T02:47:07;103061.72;;;-7.86;100.00
75460;BME280;64039;53.060;9.342;2024-01-10T02:49:33;103058.47;;;-7.85;100.00
75460;BME280;64039;53.060;9.342;2024-01-10T02:51:59;103055.06;;;-7.85;100.00
75460;BME280;64039;53.060;9.342;2024-01-10T02:54:25;103059.09;;;-7.93;100.00
75460;BME280;64039;53.060;9.342;2024-01-10T02:56:50;103054.22;;;-8.05;100.00
75460;BME280;64039;53.060;9.342;2024-01-10T02:59:16;103045.34;;;-8.08;100.00
75460;BME280;64039;53.060;9.342;2024-01-10T03:01:41;103049.06;;;-7.99;100.00
75460;BME280;64039;53.060;9.342;2024-01-10T03:04:07;103048.78;;;-8.08;100.00
75460;BME280;64039;53.060;9.342;2024-01-10T03:06:32;103047.66;;;-8.23;100.00
75460;BME280;64039;53.060;9.342;2024-01-10T03:08:57;103038.16;;;-8.31;100.00
75460;BME280;64039;53.060;9.342;2024-01-10T03:11:23;103046.25;;;-8.33;100.00
75460;BME280;64039;53.060;9.342;2024-01-10T03:13:51;103050.00;;;-8.24;100.00
75460;BME280;64039;53.060;9.342;2024-01-10T03:16:17;103044.44;;;-8.09;100.00
75460;BME280;64039;53.060;9.342;2024-01-10T03:18:42;103044.13;;;-7.92;100.00
75460;BME280;64039;53.060;9.342;2024-01-10T03:21:08;103042.28;;;-8.06;100.00
75460;BME280;64039;53.060;9.342;2024-01-10T03:23:33;103044.09;;;-7.79;100.00
75460;BME280;64039;53.060;9.342;2024-01-10T03:25:59;103030.38;;;-7.81;100.00
75460;BME280;64039;53.060;9.342;2024-01-10T03:28:24;103035.53;;;-7.99;100.00
75460;BME280;64039;53.060;9.342;2024-01-10T03:30:49;103023.59;;;-7.87;100.00
75460;BME280;64039;53.060;9.342;2024-01-10T03:33:15;103032.50;;;-8.10;100.00
75460;BME280;64039;53.060;9.342;2024-01-10T03:35:41;103028.94;;;-8.30;100.00
75460;BME280;64039;53.060;9.342;2024-01-10T03:38:07;103023.50;;;-8.46;100.00
75460;BME280;64039;53.060;9.342;2024-01-10T03:40:33;103024.22;;;-8.22;100.00
75460;BME280;64039;53.060;9.342;2024-01-10T03:42:58;103031.78;;;-7.96;100.00
75460;BME280;64039;53.060;9.342;2024-01-10T03:45:24;103024.31;;;-7.88;100.00
75460;BME280;64039;53.060;9.342;2024-01-10T03:47:49;103020.56;;;-8.11;100.00
75460;BME280;64039;53.060;9.342;2024-01-10T03:50:19;103027.03;;;-8.00;100.00
75460;BME280;64039;53.060;9.342;2024-01-10T03:52:45;103035.81;;;-8.16;100.00
75460;BME280;64039;53.060;9.342;2024-01-10T03:55:12;103032.59;;;-8.15;100.00
75460;BME280;64039;53.060;9.342;2024-01-10T03:57:41;103032.00;;;-8.20;100.00
75460;BME280;64039;53.060;9.342;2024-01-10T04:00:07;103029.56;;;-8.26;100.00
75460;BME280;64039;53.060;9.342;2024-01-10T04:02:33;103033.72;;;-8.13;100.00
75460;BME280;64039;53.060;9.342;2024-01-10T04:04:59;103040.09;;;-7.97;100.00
75460;BME280;64039;53.060;9.342;2024-01-10T04:07:26;103030.78;;;-8.03;100.00
75460;BME280;64039;53.060;9.342;2024-01-10T04:09:51;103017.53;;;-8.08;100.00
75460;BME280;64039;53.060;9.342;2024-01-10T04:12:17;103031.69;;;-8.03;100.00
75460;BME280;64039;53.060;9.342;2024-01-10T04:14:42;103036.06;;;-8.15;100.00
75460;BME280;64039;53.060;9.342;2024-01-10T04:17:08;103034.94;;;-8.30;100.00
75460;BME280;64039;53.060;9.342;2024-01-10T04:19:34;103029.53;;;-8.39;100.00
75460;BME280;64039;53.060;9.342;2024-01-10T04:22:00;103021.59;;;-8.42;100.00
75460;BME280;64039;53.060;9.342;2024-01-10T04:24:25;103025.34;;;-8.58;100.00
75460;BME280;64039;53.060;9.342;2024-01-10T04:26:51;103017.84;;;-8.64;100.00
75460;BME280;64039;53.060;9.342;2024-01-10T04:29:16;103025.84;;;-8.61;100.00
75460;BME280;64039;53.060;9.342;2024-01-10T04:31:42;103037.00;;;-8.72;100.00
75460;BME280;64039;53.060;9.342;2024-01-10T04:34:07;103029.25;;;-8.60;100.00
75460;BME280;64039;53.060;9.342;2024-01-10T04:36:33;103027.44;;;-8.61;100.00
75460;BME280;64039;53.060;9.342;2024-01-10T04:38:59;103032.59;;;-8.41;100.00
75460;BME280;64039;53.060;9.342;2024-01-10T04:41:24;103027.66;;;-8.47;100.00
75460;BME280;64039;53.060;9.342;2024-01-10T04:43:50;103029.19;;;-8.55;100.00
75460;BME280;64039;53.060;9.342;2024-01-10T04:46:16;103028.47;;;-8.54;100.00
75460;BME280;64039;53.060;9.342;2024-01-10T04:48:41;103021.78;;;-8.40;100.00
75460;BME280;64039;53.060;9.342;2024-01-10T04:51:07;103025.88;;;-8.48;100.00
75460;BME280;64039;53.060;9.342;2024-01-10T04:53:32;103017.34;;;-8.48;100.00
75460;BME280;64039;53.060;9.342;2024-01-10T04:55:58;103014.50;;;-8.44;100.00
75460;BME280;64039;53.060;9.342;2024-01-10T04:58:24;103012.78;;;-8.38;100.00
75460;BME280;64039;53.060;9.342;2024-01-10T05:00:49;103005.31;;;-8.44;100.00
75460;BME280;64039;53.060;9.342;2024-01-10T05:03:15;103016.81;;;-8.59;100.00
75460;BME280;64039;53.060;9.342;2024-01-10T05:05:41;103018.16;;;-8.55;100.00
75460;BME280;64039;53.060;9.342;2024-01-10T05:08:06;103020.66;;;-8.42;100.00
75460;BME280;64039;53.060;9.342;2024-01-10T05:10:31;103012.72;;;-8.19;100.00
75460;BME280;64039;53.060;9.342;2024-01-10T05:12:57;103016.72;;;-8.01;100.00
75460;BME280;64039;53.060;9.342;2024-01-10T05:15:22;103018.38;;;-8.02;100.00
75460;BME280;64039;53.060;9.342;2024-01-10T05:17:48;103015.00;;;-7.95;100.00
75460;BME280;64039;53.060;9.342;2024-01-10T05:20:14;103018.13;;;-8.16;100.00
75460;BME280;64039;53.060;9.342;2024-01-10T05:22:40;103015.84;;;-8.15;100.00
75460;BME280;64039;53.060;9.342;2024-01-10T05:25:05;103017.75;;;-8.07;100.00
75460;BME280;64039;53.060;9.342;2024-01-10T05:27:31;103019.97;;;-8.02;100.00
75460;BME280;64039;53.060;9.342;2024-01-10T05:29:56;103014.63;;;-8.11;100.00
75460;BME280;64039;53.060;9.342;2024-01-10T05:32:22;103016.94;;;-8.13;100.00
75460;BME280;64039;53.060;9.342;2024-01-10T05:34:47;103022.91;;;-7.99;100.00
75460;BME280;64039;53.060;9.342;2024-01-10T05:37:13;103015.31;;;-8.12;100.00
75460;BME280;64039;53.060;9.342;2024-01-10T05:39:38;103011.06;;;-8.06;100.00
75460;BME280;64039;53.060;9.342;2024-01-10T05:42:04;103013.50;;;-8.13;100.00
75460;BME280;64039;53.060;9.342;2024-01-10T05:44:30;103009.16;;;-8.14;100.00
75460;BME280;64039;53.060;9.342;2024-01-10T05:46:55;103011.78;;;-8.33;100.00
75460;BME280;64039;53.060;9.342;2024-01-10T05:49:25;103010.56;;;-8.16;100.00
75460;BME280;64039;53.060;9.342;2024-01-10T05:51:51;103010.78;;;-8.02;100.00
75460;BME280;64039;53.060;9.342;2024-01-10T05:54:16;103005.91;;;-8.00;100.00
75460;BME280;64039;53.060;9.342;2024-01-10T05:56:43;102997.22;;;-8.02;100.00
75460;BME280;64039;53.060;9.342;2024-01-10T05:59:09;103001.06;;;-8.25;100.00
75460;BME280;64039;53.060;9.342;2024-01-10T06:01:37;102995.22;;;-8.31;100.00
75460;BME280;64039;53.060;9.342;2024-01-10T06:04:04;102990.34;;;-8.42;100.00
75460;BME280;64039;53.060;9.342;2024-01-10T06:06:30;102990.34;;;-8.42;100.00
75460;BME280;64039;53.060;9.342;2024-01-10T06:08:55;102993.19;;;-8.33;100.00
75460;BME280;64039;53.060;9.342;2024-01-10T06:11:21;102981.56;;;-8.39;100.00
75460;BME280;64039;53.060;9.342;2024-01-10T06:13:46;102988.44;;;-8.38;100.00
75460;BME280;64039;53.060;9.342;2024-01-10T06:16:12;102991.38;;;-8.22;100.00
75460;BME280;64039;53.060;9.342;2024-01-10T06:18:39;102985.00;;;-8.25;100.00
75460;BME280;64039;53.060;9.342;2024-01-10T06:21:04;102992.06;;;-8.23;100.00
75460;BME280;64039;53.060;9.342;2024-01-10T06:23:30;102998.84;;;-8.29;100.00
75460;BME280;64039;53.060;9.342;2024-01-10T06:25:55;102994.09;;;-8.33;100.00
75460;BME280;64039;53.060;9.342;2024-01-10T06:28:21;102987.34;;;-8.40;100.00
75460;BME280;64039;53.060;9.342;2024-01-10T06:30:46;102997.44;;;-8.40;100.00
75460;BME280;64039;53.060;9.342;2024-01-10T06:33:12;102993.72;;;-8.49;100.00
75460;BME280;64039;53.060;9.342;2024-01-10T06:35:38;102992.69;;;-8.57;100.00
75460;BME280;64039;53.060;9.342;2024-01-10T06:38:03;102987.44;;;-8.45;100.00
75460;BME280;64039;53.060;9.342;2024-01-10T06:40:29;102994.53;;;-8.56;100.00
75460;BME280;64039;53.060;9.342;2024-01-10T06:42:55;102991.88;;;-8.63;100.00
75460;BME280;64039;53.060;9.342;2024-01-10T06:45:20;102993.22;;;-8.59;100.00
75460;BME280;64039;53.060;9.342;2024-01-10T06:47:47;102997.94;;;-8.55;100.00
75460;BME280;64039;53.060;9.342;2024-01-10T06:50:12;102994.22;;;-8.51;100.00
75460;BME280;64039;53.060;9.342;2024-01-10T06:52:38;102991.66;;;-8.13;100.00
75460;BME280;64039;53.060;9.342;2024-01-10T06:55:03;102995.72;;;-8.33;100.00
75460;BME280;64039;53.060;9.342;2024-01-10T06:57:29;102992.25;;;-8.34;100.00
75460;BME280;64039;53.060;9.342;2024-01-10T06:59:55;102997.63;;;-8.38;100.00
75460;BME280;64039;53.060;9.342;2024-01-10T07:02:20;103000.53;;;-8.35;100.00
75460;BME280;64039;53.060;9.342;2024-01-10T07:04:45;102999.03;;;-8.40;100.00
75460;BME280;64039;53.060;9.342;2024-01-10T07:07:14;103011.69;;;-8.53;100.00
75460;BME280;64039;53.060;9.342;2024-01-10T07:09:39;103010.19;;;-8.58;100.00
75460;BME280;64039;53.060;9.342;2024-01-10T07:12:07;103003.81;;;-8.62;100.00
75460;BME280;64039;53.060;9.342;2024-01-10T07:14:32;103014.22;;;-8.53;100.00
75460;BME280;64039;53.060;9.342;2024-01-10T07:16:58;103020.16;;;-8.65;100.00
75460;BME280;64039;53.060;9.342;2024-01-10T07:19:23;103019.84;;;-8.61;100.00
75460;BME280;64039;53.060;9.342;2024-01-10T07:21:49;103019.03;;;-8.67;100.00
75460;BME280;64039;53.060;9.342;2024-01-10T07:24:15;103024.50;;;-8.77;100.00
75460;BME280;64039;53.060;9.342;2024-01-10T07:26:41;103018.91;;;-8.88;100.00
75460;BME280;64039;53.060;9.342;2024-01-10T07:29:06;103019.03;;;-8.80;100.00
75460;BME280;64039;53.060;9.342;2024-01-10T07:31:34;103021.50;;;-8.62;100.00
75460;BME280;64039;53.060;9.342;2024-01-10T07:34:00;103017.13;;;-8.37;100.00
75460;BME280;64039;53.060;9.342;2024-01-10T07:36:26;103024.00;;;-8.62;100.00
75460;BME280;64039;53.060;9.342;2024-01-10T07:38:59;103023.09;;;-8.62;100.00
75460;BME280;64039;53.060;9.342;2024-01-10T07:41:25;103030.97;;;-8.66;100.00
75460;BME280;64039;53.060;9.342;2024-01-10T07:43:50;103032.41;;;-8.56;100.00
75460;BME280;64039;53.060;9.342;2024-01-10T07:46:15;103039.53;;;-8.46;100.00
75460;BME280;64039;53.060;9.342;2024-01-10T07:48:41;103042.41;;;-8.50;100.00
75460;BME280;64039;53.060;9.342;2024-01-10T07:51:07;103043.50;;;-8.61;100.00
75460;BME280;64039;53.060;9.342;2024-01-10T07:53:33;103040.16;;;-8.54;100.00
75460;BME280;64039;53.060;9.342;2024-01-10T07:55:59;103047.97;;;-8.52;100.00
75460;BME280;64039;53.060;9.342;2024-01-10T07:58:24;103048.59;;;-8.48;100.00
75460;BME280;64039;53.060;9.342;2024-01-10T08:00:50;103041.81;;;-8.55;100.00
75460;BME280;64039;53.060;9.342;2024-01-10T08:03:16;103043.13;;;-8.51;100.00
75460;BME280;64039;53.060;9.342;2024-01-10T08:05:42;103045.22;;;-8.54;100.00
75460;BME280;64039;53.060;9.342;2024-01-10T08:08:07;103045.13;;;-8.48;100.00
75460;BME280;64039;53.060;9.342;2024-01-10T08:10:32;103043.69;;;-8.46;100.00
75460;BME280;64039;53.060;9.342;2024-01-10T08:12:58;103041.16;;;-8.46;100.00
75460;BME280;64039;53.060;9.342;2024-01-10T08:15:23;103041.09;;;-8.54;100.00
75460;BME280;64039;53.060;9.342;2024-01-10T08:17:49;103037.56;;;-8.48;100.00
75460;BME280;64039;53.060;9.342;2024-01-10T08:20:14;103037.75;;;-8.08;100.00
75460;BME280;64039;53.060;9.342;2024-01-10T08:22:44;103030.69;;;-8.11;100.00
75460;BME280;64039;53.060;9.342;2024-01-10T08:25:10;103032.00;;;-8.07;100.00
75460;BME280;64039;53.060;9.342;2024-01-10T08:27:35;103035.22;;;-8.34;100.00
75460;BME280;64039;53.060;9.342;2024-01-10T08:30:01;103034.53;;;-8.07;100.00
75460;BME280;64039;53.060;9.342;2024-01-10T08:32:30;103038.97;;;-8.12;100.00
75460;BME280;64039;53.060;9.342;2024-01-10T08:34:55;103031.97;;;-7.94;100.00
75460;BME280;64039;53.060;9.342;2024-01-10T08:37:21;103023.88;;;-7.92;100.00
75460;BME280;64039;53.060;9.342;2024-01-10T08:39:47;103031.69;;;-7.90;100.00
75460;BME280;64039;53.060;9.342;2024-01-10T08:42:12;103013.16;;;-7.83;100.00
75460;BME280;64039;53.060;9.342;2024-01-10T08:44:38;103026.97;;;-7.61;100.00
75460;BME280;64039;53.060;9.342;2024-01-10T08:47:03;103028.53;;;-7.69;100.00
75460;BME280;64039;53.060;9.342;2024-01-10T08:49:29;103025.78;;;-7.70;100.00
75460;BME280;64039;53.060;9.342;2024-01-10T08:51:55;103030.72;;;-7.52;100.00
75460;BME280;64039;53.060;9.342;2024-01-10T08:54:20;103026.06;;;-7.49;100.00
75460;BME280;64039;53.060;9.342;2024-01-10T08:56:47;103023.34;;;-7.30;100.00
75460;BME280;64039;53.060;9.342;2024-01-10T08:59:13;103022.16;;;-7.27;100.00
75460;BME280;64039;53.060;9.342;2024-01-10T09:01:38;103022.59;;;-7.16;100.00
75460;BME280;64039;53.060;9.342;2024-01-10T09:04:04;103018.56;;;-7.21;100.00
75460;BME280;64039;53.060;9.342;2024-01-10T09:06:31;103023.19;;;-7.12;100.00
75460;BME280;64039;53.060;9.342;2024-01-10T09:08:57;103029.47;;;-7.15;100.00
75460;BME280;64039;53.060;9.342;2024-01-10T09:11:22;103032.72;;;-6.96;100.00
75460;BME280;64039;53.060;9.342;2024-01-10T09:13:47;103033.13;;;-6.93;100.00
75460;BME280;64039;53.060;9.342;2024-01-10T09:16:14;103032.41;;;-6.92;100.00
75460;BME280;64039;53.060;9.342;2024-01-10T09:18:40;103032.28;;;-7.06;100.00
75460;BME280;64039;53.060;9.342;2024-01-10T09:21:06;103022.34;;;-6.85;100.00
75460;BME280;64039;53.060;9.342;2024-01-10T09:23:31;103015.22;;;-6.95;100.00
75460;BME280;64039;53.060;9.342;2024-01-10T09:25:57;103015.97;;;-6.88;100.00
75460;BME280;64039;53.060;9.342;2024-01-10T09:28:22;103019.91;;;-6.70;100.00
75460;BME280;64039;53.060;9.342;2024-01-10T09:30:48;103020.09;;;-6.76;100.00
75460;BME280;64039;53.060;9.342;2024-01-10T09:33:14;103019.34;;;-6.55;100.00
75460;BME280;64039;53.060;9.342;2024-01-10T09:35:39;103017.31;;;-6.57;100.00
75460;BME280;64039;53.060;9.342;2024-01-10T09:38:05;103018.41;;;-6.55;100.00
75460;BME280;64039;53.060;9.342;2024-01-10T09:40:30;103017.94;;;-6.45;100.00
75460;BME280;64039;53.060;9.342;2024-01-10T09:42:56;103015.81;;;-6.42;100.00
75460;BME280;64039;53.060;9.342;2024-01-10T09:45:23;103011.69;;;-6.35;100.00
75460;BME280;64039;53.060;9.342;2024-01-10T09:47:54;103011.22;;;-6.25;100.00
75460;BME280;64039;53.060;9.342;2024-01-10T09:50:21;103010.09;;;-6.27;100.00
75460;BME280;64039;53.060;9.342;2024-01-10T09:53:04;103011.69;;;-6.35;100.00
75460;BME280;64039;53.060;9.342;2024-01-10T09:55:34;103007.28;;;-6.16;100.00
75460;BME280;64039;53.060;9.342;2024-01-10T09:58:05;103006.75;;;-6.13;100.00
75460;BME280;64039;53.060;9.342;2024-01-10T10:00:33;103010.38;;;-6.11;100.00
75460;BME280;64039;53.060;9.342;2024-01-10T10:03:00;103009.13;;;-6.07;100.00
75460;BME280;64039;53.060;9.342;2024-01-10T10:05:27;103007.16;;;-6.03;100.00
75460;BME280;64039;53.060;9.342;2024-01-10T10:07:52;103006.63;;;-6.00;100.00
75460;BME280;64039;53.060;9.342;2024-01-10T10:10:22;103007.72;;;-5.91;100.00
75460;BME280;64039;53.060;9.342;2024-01-10T10:12:49;103006.69;;;-5.78;100.00
75460;BME280;64039;53.060;9.342;2024-01-10T10:15:17;103005.63;;;-5.80;100.00
75460;BME280;64039;53.060;9.342;2024-01-10T10:17:51;103015.97;;;-5.72;100.00
75460;BME280;64039;53.060;9.342;2024-01-10T10:20:29;102999.63;;;-5.74;100.00
75460;BME280;64039;53.060;9.342;2024-01-10T10:22:58;102996.41;;;-5.65;100.00
75460;BME280;64039;53.060;9.342;2024-01-10T10:25:32;102993.56;;;-5.54;100.00
75460;BME280;64039;53.060;9.342;2024-01-10T10:27:57;102991.16;;;-5.60;100.00
75460;BME280;64039;53.060;9.342;2024-01-10T10:30:23;102990.47;;;-5.52;100.00
75460;BME280;64039;53.060;9.342;2024-01-10T10:32:49;102992.16;;;-5.87;100.00
75460;BME280;64039;53.060;9.342;2024-01-10T10:35:15;102987.75;;;-5.60;100.00
75460;BME280;64039;53.060;9.342;2024-01-10T10:37:41;102985.97;;;-5.40;100.00
75460;BME280;64039;53.060;9.342;2024-01-10T10:40:07;102991.75;;;-5.41;100.00
75460;BME280;64039;53.060;9.342;2024-01-10T10:42:37;102978.88;;;-5.49;100.00
75460;BME280;64039;53.060;9.342;2024-01-10T10:45:06;102979.66;;;-5.29;100.00
75460;BME280;64039;53.060;9.342;2024-01-10T10:47:36;102984.91;;;-5.27;99.93
75460;BME280;64039;53.060;9.342;2024-01-10T10:50:03;102982.94;;;-5.15;100.00
75460;BME280;64039;53.060;9.342;2024-01-10T10:52:30;102974.22;;;-5.17;99.77
75460;BME280;64039;53.060;9.342;2024-01-10T10:54:58;102970.25;;;-5.23;99.87
75460;BME280;64039;53.060;9.342;2024-01-10T10:57:25;102971.50;;;-5.12;99.47
75460;BME280;64039;53.060;9.342;2024-01-10T10:59:53;102960.97;;;-5.08;100.00
75460;BME280;64039;53.060;9.342;2024-01-10T11:02:21;102961.19;;;-5.06;100.00
75460;BME280;64039;53.060;9.342;2024-01-10T11:04:50;102959.19;;;-5.09;99.75
75460;BME280;64039;53.060;9.342;2024-01-10T11:07:19;102956.81;;;-5.07;100.00
75460;BME280;64039;53.060;9.342;2024-01-10T11:09:44;102960.25;;;-5.07;100.00
75460;BME280;64039;53.060;9.342;2024-01-10T11:12:43;102951.72;;;-4.93;98.23
75460;BME280;64039;53.060;9.342;2024-01-10T11:21:05;102953.00;;;-4.82;95.88
75460;BME280;64039;53.060;9.342;2024-01-10T11:23:38;102941.78;;;-4.84;94.14
75460;BME280;64039;53.060;9.342;2024-01-10T11:26:05;102949.38;;;-4.77;95.24
75460;BME280;64039;53.060;9.342;2024-01-10T11:28:31;102945.00;;;-4.70;95.92
75460;BME280;64039;53.060;9.342;2024-01-10T11:30:58;102942.84;;;-4.67;95.59
75460;BME280;64039;53.060;9.342;2024-01-10T11:33:31;102939.19;;;-4.69;95.87
75460;BME280;64039;53.060;9.342;2024-01-10T11:36:18;102931.22;;;-4.58;94.06
75460;BME280;64039;53.060;9.342;2024-01-10T11:46:37;102934.06;;;-4.48;92.25
75460;BME280;64039;53.060;9.342;2024-01-10T11:49:03;102936.97;;;-4.45;92.71
75460;BME280;64039;53.060;9.342;2024-01-10T11:51:35;102936.25;;;-4.44;92.36
75460;BME280;64039;53.060;9.342;2024-01-10T11:54:02;102942.03;;;-4.37;93.05
75460;BME280;64039;53.060;9.342;2024-01-10T11:56:38;102942.44;;;-4.42;92.74
75460;BME280;64039;53.060;9.342;2024-01-10T11:59:07;102931.00;;;-4.45;90.81
75460;BME280;64039;53.060;9.342;2024-01-10T12:01:38;102939.16;;;-4.48;92.77
75460;BME280;64039;53.060;9.342;2024-01-10T12:04:05;102932.44;;;-4.40;92.01
75460;BME280;64039;53.060;9.342;2024-01-10T12:06:31;102925.38;;;-4.50;89.12
75460;BME280;64039;53.060;9.342;2024-01-10T12:08:57;102930.78;;;-4.39;90.30
75460;BME280;64039;53.060;9.342;2024-01-10T12:11:23;102929.81;;;-4.26;90.96
75460;BME280;64039;53.060;9.342;2024-01-10T12:13:48;102925.31;;;-4.28;88.98
75460;BME280;64039;53.060;9.342;2024-01-10T12:16:14;102914.06;;;-4.37;89.84
75460;BME280;64039;53.060;9.342;2024-01-10T12:18:42;102922.56;;;-4.22;90.15
75460;BME280;64039;53.060;9.342;2024-01-10T12:21:07;102917.63;;;-4.21;91.99
75460;BME280;64039;53.060;9.342;2024-01-10T12:23:35;102918.03;;;-4.25;92.41
75460;BME280;64039;53.060;9.342;2024-01-10T12:26:08;102915.13;;;-4.28;92.62
75460;BME280;64039;53.060;9.342;2024-01-10T12:28:35;102905.16;;;-4.34;91.75
75460;BME280;64039;53.060;9.342;2024-01-10T12:31:01;102902.63;;;-4.34;91.90
75460;BME280;64039;53.060;9.342;2024-01-10T12:33:27;102901.16;;;-4.32;92.26
75460;BME280;64039;53.060;9.342;2024-01-10T12:36:11;102913.16;;;-4.31;92.38
75460;BME280;64039;53.060;9.342;2024-01-10T12:38:40;102909.28;;;-4.20;93.00
75460;BME280;64039;53.060;9.342;2024-01-10T12:41:07;102908.19;;;-4.22;92.06
75460;BME280;64039;53.060;9.342;2024-01-10T12:43:35;102906.38;;;-4.23;91.62
75460;BME280;64039;53.060;9.342;2024-01-10T12:46:11;102904.41;;;-4.26;91.27
75460;BME280;64039;53.060;9.342;2024-01-10T12:48:38;102900.97;;;-4.26;90.63
75460;BME280;64039;53.060;9.342;2024-01-10T12:51:11;102901.69;;;-4.27;91.75